Reynolds, Nebraska
Current Conditions -  °F | °C
As of 8:35 AM on Saturday 22 Nov 2014 (Local Time) from KHJH Reporting Station
Haze Haze  
Wind Chill: -1°   Ceiling: 300
Heat Index:   Visibility: 0.75mi
Dew Point:   Wind: 9mph
Humidity: 94%   Direction: 210°SSW
Pressure: 29.86"   Gusts: NA
Location:  40.06°N, 97.34°W
Report Text: KHJH 221435Z AUTO 21008KT 3/4SM BR OVC003 03/02 A2986 RMK AO2 T00300021
Loading
Personal Weather Stations






























Interactive Weather Map New forecast layout! Learn more

10-Day Weather Forecast

Advertisements
Track Severe Weather on mobile